Startpagina
METAR-TAF:

METAR-TAF

Vliegvelden :

Le Touquet, Frankrijk

breedte: 50-30-53N, lengte: 001-37-39E, hoogte: 6 m

Actueel weer

Dit bericht is 37 minuten geleden gemaakt, om 04:00 UTC
Wind 3 kt uit variabele richting
Temperatuur -1°C
Vochtigheid 100%
Druk 1026 hPa
Zicht: 6000 m

METAR: LFAT 120400Z AUTO VRB03KT 6000 NSC M01/M01 Q1026

Tijdstip: 06:37 (04:37 UTC)

Verwachting

Dit bericht is 14 uur en het 37 minuten geleden gemaakt, om 14:00 UTC
Verwachting geldig van 11 om 15 UTC tot 11 om 24 UTC
Wind 13 kt uit het noorden
Zicht 10 km of meer
Verspreide wolken op 2500 ft
Verspreide wolken op 4000 ft
Wijzigt naar
van 11 om 17 UTC tot 11 om 19 UTC
Wind 3 kt uit variabele richting
Kans 30% :
Tijdelijke
van 11 om 19 UTC tot 11 om 24 UTC
Wind 15 kt uit het westnoordwesten met uitschieters tot 25 kt
Zicht: 4000 m
Gebroken wolken op 1500 ft, Cumulonimbus.
regenbuien

TAF: LFAT 111400Z 1115/1124 35013KT 9999 SCT025 SCT040 BECMG 1117/1119 VRB03KT PROB30 TEMPO 1119/1124 30015G25KT 4000 SHRA BKN015CB

Waarnemingen en weersverwachtingen van meer dan 4000 vliegvelden (METAR en TAF).

De beschikbare stations zijn de gele en rode punten op de kaart.

Ga met uw muis naar het station om de naam te zien.

Klik dan om waarnemingen en weersverwachtingen te zien.

kaart wijzigen: klik op de groene knoppen met een zwart kruis om in te zoomen, op de groene knop met een streepje om uit te zoomen of op de groene pijlen voor aangrenzende kaarten.


METAR-TAF: